sensor_id;sensor_type;location;lat;lon;timestamp;P1;durP1;ratioP1;P2;durP2;ratioP2
37903;SDS011;23738;50.422;18.758;2023-06-26T00:00:15;5.20;;;4.70;;
37903;SDS011;23738;50.422;18.758;2023-06-26T00:02:45;5.20;;;4.70;;
37903;SDS011;23738;50.422;18.758;2023-06-26T00:05:15;6.00;;;5.50;;
37903;SDS011;23738;50.422;18.758;2023-06-26T00:07:44;12.40;;;10.90;;
37903;SDS011;23738;50.422;18.758;2023-06-26T00:10:13;11.00;;;7.40;;
37903;SDS011;23738;50.422;18.758;2023-06-26T00:12:43;7.60;;;6.80;;
37903;SDS011;23738;50.422;18.758;2023-06-26T00:15:12;7.60;;;6.80;;
37903;SDS011;23738;50.422;18.758;2023-06-26T00:17:41;11.10;;;7.80;;
37903;SDS011;23738;50.422;18.758;2023-06-26T00:20:11;10.90;;;7.70;;
37903;SDS011;23738;50.422;18.758;2023-06-26T00:22:44;12.20;;;8.00;;
37903;SDS011;23738;50.422;18.758;2023-06-26T00:25:13;9.10;;;6.50;;
37903;SDS011;23738;50.422;18.758;2023-06-26T00:27:43;7.30;;;6.60;;
37903;SDS011;23738;50.422;18.758;2023-06-26T00:30:13;6.10;;;5.50;;
37903;SDS011;23738;50.422;18.758;2023-06-26T00:32:42;7.80;;;6.20;;
37903;SDS011;23738;50.422;18.758;2023-06-26T00:35:11;8.70;;;6.00;;
37903;SDS011;23738;50.422;18.758;2023-06-26T00:37:41;7.00;;;6.20;;
37903;SDS011;23738;50.422;18.758;2023-06-26T00:40:12;8.60;;;6.70;;
37903;SDS011;23738;50.422;18.758;2023-06-26T00:42:41;9.90;;;6.80;;
37903;SDS011;23738;50.422;18.758;2023-06-26T00:45:11;7.10;;;6.40;;
37903;SDS011;23738;50.422;18.758;2023-06-26T00:47:40;7.00;;;6.20;;
37903;SDS011;23738;50.422;18.758;2023-06-26T00:50:10;9.20;;;5.80;;
37903;SDS011;23738;50.422;18.758;2023-06-26T00:52:42;7.30;;;6.40;;
37903;SDS011;23738;50.422;18.758;2023-06-26T00:55:11;6.30;;;5.70;;
37903;SDS011;23738;50.422;18.758;2023-06-26T00:57:41;8.80;;;5.50;;
37903;SDS011;23738;50.422;18.758;2023-06-26T01:28:12;6.30;;;5.60;;
37903;SDS011;23738;50.422;18.758;2023-06-26T01:30:43;7.00;;;6.30;;
37903;SDS011;23738;50.422;18.758;2023-06-26T01:33:14;9.50;;;6.30;;
37903;SDS011;23738;50.422;18.758;2023-06-26T01:35:44;6.30;;;5.10;;
37903;SDS011;23738;50.422;18.758;2023-06-26T01:38:15;7.60;;;4.50;;
37903;SDS011;23738;50.422;18.758;2023-06-26T01:40:46;5.20;;;4.20;;
37903;SDS011;23738;50.422;18.758;2023-06-26T01:43:18;5.80;;;5.20;;
37903;SDS011;23738;50.422;18.758;2023-06-26T01:45:53;6.40;;;5.70;;
37903;SDS011;23738;50.422;18.758;2023-06-26T01:48:27;5.90;;;5.30;;
37903;SDS011;23738;50.422;18.758;2023-06-26T01:51:00;10.30;;;6.30;;
37903;SDS011;23738;50.422;18.758;2023-06-26T01:53:32;6.00;;;5.40;;
37903;SDS011;23738;50.422;18.758;2023-06-26T01:56:13;6.20;;;5.30;;
37903;SDS011;23738;50.422;18.758;2023-06-26T01:58:47;5.50;;;4.90;;
37903;SDS011;23738;50.422;18.758;2023-06-26T02:01:19;6.00;;;4.90;;
37903;SDS011;23738;50.422;18.758;2023-06-26T02:03:49;7.40;;;5.70;;
37903;SDS011;23738;50.422;18.758;2023-06-26T02:06:18;7.70;;;5.90;;
37903;SDS011;23738;50.422;18.758;2023-06-26T02:08:47;8.70;;;6.30;;
37903;SDS011;23738;50.422;18.758;2023-06-26T02:11:17;8.50;;;5.60;;
37903;SDS011;23738;50.422;18.758;2023-06-26T02:13:46;8.50;;;5.80;;
37903;SDS011;23738;50.422;18.758;2023-06-26T02:16:15;7.80;;;5.10;;
37903;SDS011;23738;50.422;18.758;2023-06-26T02:18:44;7.50;;;5.20;;
37903;SDS011;23738;50.422;18.758;2023-06-26T02:21:14;9.40;;;5.00;;
37903;SDS011;23738;50.422;18.758;2023-06-26T02:23:43;7.70;;;5.90;;
37903;SDS011;23738;50.422;18.758;2023-06-26T02:26:12;8.40;;;5.10;;
37903;SDS011;23738;50.422;18.758;2023-06-26T02:28:41;8.70;;;5.80;;
37903;SDS011;23738;50.422;18.758;2023-06-26T02:31:11;6.60;;;5.20;;
37903;SDS011;23738;50.422;18.758;2023-06-26T02:33:40;7.60;;;5.90;;
37903;SDS011;23738;50.422;18.758;2023-06-26T02:36:11;5.20;;;4.60;;
37903;SDS011;23738;50.422;18.758;2023-06-26T02:38:41;8.00;;;5.10;;
37903;SDS011;23738;50.422;18.758;2023-06-26T02:41:10;11.50;;;6.10;;
37903;SDS011;23738;50.422;18.758;2023-06-26T02:43:39;6.80;;;5.90;;
37903;SDS011;23738;50.422;18.758;2023-06-26T02:46:08;8.00;;;5.50;;
37903;SDS011;23738;50.422;18.758;2023-06-26T02:48:37;7.10;;;5.60;;
37903;SDS011;23738;50.422;18.758;2023-06-26T02:51:07;5.70;;;4.80;;
37903;SDS011;23738;50.422;18.758;2023-06-26T02:53:36;12.90;;;6.90;;
37903;SDS011;23738;50.422;18.758;2023-06-26T02:56:05;7.60;;;5.50;;
37903;SDS011;23738;50.422;18.758;2023-06-26T02:58:35;15.80;;;4.70;;
37903;SDS011;23738;50.422;18.758;2023-06-26T03:01:04;6.80;;;4.60;;
37903;SDS011;23738;50.422;18.758;2023-06-26T03:03:34;5.80;;;4.60;;
37903;SDS011;23738;50.422;18.758;2023-06-26T03:06:07;6.60;;;4.70;;
37903;SDS011;23738;50.422;18.758;2023-06-26T03:08:36;6.70;;;5.70;;
37903;SDS011;23738;50.422;18.758;2023-06-26T03:11:06;8.20;;;5.50;;
37903;SDS011;23738;50.422;18.758;2023-06-26T03:13:36;8.50;;;6.20;;
37903;SDS011;23738;50.422;18.758;2023-06-26T03:16:06;8.50;;;5.70;;
37903;SDS011;23738;50.422;18.758;2023-06-26T03:18:35;6.70;;;4.80;;
37903;SDS011;23738;50.422;18.758;2023-06-26T03:21:04;5.60;;;4.60;;
37903;SDS011;23738;50.422;18.758;2023-06-26T03:23:33;6.90;;;5.00;;
37903;SDS011;23738;50.422;18.758;2023-06-26T03:26:03;8.70;;;5.10;;
37903;SDS011;23738;50.422;18.758;2023-06-26T03:28:32;6.00;;;5.40;;
37903;SDS011;23738;50.422;18.758;2023-06-26T03:31:01;9.50;;;5.20;;
37903;SDS011;23738;50.422;18.758;2023-06-26T03:33:30;8.40;;;5.90;;
37903;SDS011;23738;50.422;18.758;2023-06-26T03:36:00;8.80;;;5.80;;
37903;SDS011;23738;50.422;18.758;2023-06-26T03:38:29;9.60;;;5.50;;
37903;SDS011;23738;50.422;18.758;2023-06-26T03:40:58;10.70;;;5.00;;
37903;SDS011;23738;50.422;18.758;2023-06-26T03:43:28;9.90;;;5.60;;
37903;SDS011;23738;50.422;18.758;2023-06-26T03:45:57;8.90;;;5.80;;
37903;SDS011;23738;50.422;18.758;2023-06-26T03:48:27;8.40;;;5.60;;
37903;SDS011;23738;50.422;18.758;2023-06-26T03:50:56;7.90;;;6.70;;
37903;SDS011;23738;50.422;18.758;2023-06-26T03:53:28;12.40;;;7.10;;
37903;SDS011;23738;50.422;18.758;2023-06-26T03:55:57;8.60;;;6.10;;
37903;SDS011;23738;50.422;18.758;2023-06-26T03:58:26;9.00;;;5.90;;
37903;SDS011;23738;50.422;18.758;2023-06-26T04:00:55;10.60;;;5.10;;
37903;SDS011;23738;50.422;18.758;2023-06-26T04:03:25;10.20;;;6.30;;
37903;SDS011;23738;50.422;18.758;2023-06-26T04:05:54;8.50;;;6.10;;
37903;SDS011;23738;50.422;18.758;2023-06-26T04:08:24;10.20;;;7.10;;
37903;SDS011;23738;50.422;18.758;2023-06-26T04:10:54;11.50;;;7.20;;
37903;SDS011;23738;50.422;18.758;2023-06-26T04:13:25;7.20;;;6.00;;
37903;SDS011;23738;50.422;18.758;2023-06-26T04:15:54;9.60;;;5.90;;
37903;SDS011;23738;50.422;18.758;2023-06-26T04:18:23;11.00;;;6.50;;
37903;SDS011;23738;50.422;18.758;2023-06-26T04:21:05;13.70;;;7.30;;
37903;SDS011;23738;50.422;18.758;2023-06-26T04:23:37;11.00;;;7.80;;
37903;SDS011;23738;50.422;18.758;2023-06-26T04:26:08;10.30;;;7.80;;
37903;SDS011;23738;50.422;18.758;2023-06-26T04:28:39;12.90;;;7.40;;
37903;SDS011;23738;50.422;18.758;2023-06-26T04:31:09;10.80;;;6.20;;
37903;SDS011;23738;50.422;18.758;2023-06-26T04:33:38;14.20;;;7.70;;
37903;SDS011;23738;50.422;18.758;2023-06-26T04:36:08;12.40;;;9.30;;
37903;SDS011;23738;50.422;18.758;2023-06-26T04:38:37;11.70;;;10.50;;
37903;SDS011;23738;50.422;18.758;2023-06-26T04:41:07;11.60;;;10.50;;
37903;SDS011;23738;50.422;18.758;2023-06-26T04:43:36;12.00;;;10.50;;
37903;SDS011;23738;50.422;18.758;2023-06-26T04:46:05;10.60;;;9.60;;
37903;SDS011;23738;50.422;18.758;2023-06-26T04:48:35;9.60;;;8.60;;
37903;SDS011;23738;50.422;18.758;2023-06-26T04:51:04;10.90;;;8.80;;
37903;SDS011;23738;50.422;18.758;2023-06-26T04:53:33;10.70;;;9.60;;
37903;SDS011;23738;50.422;18.758;2023-06-26T04:56:03;10.80;;;9.70;;
37903;SDS011;23738;50.422;18.758;2023-06-26T04:58:32;10.70;;;8.30;;
37903;SDS011;23738;50.422;18.758;2023-06-26T05:01:02;9.80;;;8.80;;
37903;SDS011;23738;50.422;18.758;2023-06-26T05:03:33;10.20;;;8.50;;
37903;SDS011;23738;50.422;18.758;2023-06-26T05:06:03;10.50;;;7.70;;
37903;SDS011;23738;50.422;18.758;2023-06-26T05:08:32;9.40;;;8.50;;
37903;SDS011;23738;50.422;18.758;2023-06-26T05:11:02;11.00;;;8.10;;
37903;SDS011;23738;50.422;18.758;2023-06-26T05:13:31;10.00;;;9.00;;
37903;SDS011;23738;50.422;18.758;2023-06-26T05:16:00;9.30;;;8.50;;
37903;SDS011;23738;50.422;18.758;2023-06-26T05:18:30;9.30;;;8.20;;
37903;SDS011;23738;50.422;18.758;2023-06-26T05:21:00;8.50;;;7.70;;
37903;SDS011;23738;50.422;18.758;2023-06-26T05:23:31;8.50;;;7.80;;
37903;SDS011;23738;50.422;18.758;2023-06-26T05:26:02;9.70;;;8.80;;
37903;SDS011;23738;50.422;18.758;2023-06-26T05:28:32;12.90;;;8.00;;
37903;SDS011;23738;50.422;18.758;2023-06-26T05:31:04;9.20;;;7.70;;
37903;SDS011;23738;50.422;18.758;2023-06-26T05:33:34;9.20;;;8.30;;
37903;SDS011;23738;50.422;18.758;2023-06-26T05:36:05;8.80;;;7.80;;
37903;SDS011;23738;50.422;18.758;2023-06-26T05:38:37;8.90;;;7.50;;
37903;SDS011;23738;50.422;18.758;2023-06-26T05:41:07;9.30;;;7.30;;
37903;SDS011;23738;50.422;18.758;2023-06-26T05:43:37;8.00;;;7.30;;
37903;SDS011;23738;50.422;18.758;2023-06-26T05:46:06;11.50;;;7.50;;
37903;SDS011;23738;50.422;18.758;2023-06-26T05:48:36;8.60;;;7.60;;
37903;SDS011;23738;50.422;18.758;2023-06-26T05:51:06;7.70;;;7.00;;
37903;SDS011;23738;50.422;18.758;2023-06-26T05:53:37;12.40;;;7.40;;
37903;SDS011;23738;50.422;18.758;2023-06-26T05:56:08;8.60;;;7.50;;
37903;SDS011;23738;50.422;18.758;2023-06-26T05:58:38;11.10;;;6.90;;
37903;SDS011;23738;50.422;18.758;2023-06-26T06:01:10;11.40;;;6.60;;
37903;SDS011;23738;50.422;18.758;2023-06-26T06:03:40;7.90;;;6.90;;
37903;SDS011;23738;50.422;18.758;2023-06-26T06:06:09;7.10;;;6.10;;
37903;SDS011;23738;50.422;18.758;2023-06-26T06:08:38;6.20;;;5.70;;
37903;SDS011;23738;50.422;18.758;2023-06-26T06:11:07;6.00;;;5.50;;
37903;SDS011;23738;50.422;18.758;2023-06-26T06:13:38;7.10;;;5.20;;
37903;SDS011;23738;50.422;18.758;2023-06-26T06:16:07;6.00;;;5.50;;
37903;SDS011;23738;50.422;18.758;2023-06-26T06:18:36;7.00;;;6.40;;
37903;SDS011;23738;50.422;18.758;2023-06-26T06:21:06;6.70;;;6.10;;
37903;SDS011;23738;50.422;18.758;2023-06-26T06:23:35;7.30;;;6.50;;
37903;SDS011;23738;50.422;18.758;2023-06-26T06:26:05;6.70;;;6.10;;
37903;SDS011;23738;50.422;18.758;2023-06-26T06:28:34;6.10;;;5.50;;
37903;SDS011;23738;50.422;18.758;2023-06-26T06:31:03;5.60;;;5.00;;
37903;SDS011;23738;50.422;18.758;2023-06-26T06:33:33;6.90;;;4.70;;
37903;SDS011;23738;50.422;18.758;2023-06-26T06:36:02;5.60;;;5.10;;
37903;SDS011;23738;50.422;18.758;2023-06-26T06:38:32;4.70;;;4.20;;
37903;SDS011;23738;50.422;18.758;2023-06-26T06:41:01;8.40;;;4.70;;
37903;SDS011;23738;50.422;18.758;2023-06-26T06:43:30;5.30;;;4.80;;
37903;SDS011;23738;50.422;18.758;2023-06-26T06:46:00;5.30;;;4.80;;
37903;SDS011;23738;50.422;18.758;2023-06-26T06:48:29;4.80;;;4.30;;
37903;SDS011;23738;50.422;18.758;2023-06-26T06:50:58;5.10;;;4.70;;
37903;SDS011;23738;50.422;18.758;2023-06-26T06:53:28;4.30;;;3.90;;
37903;SDS011;23738;50.422;18.758;2023-06-26T06:55:58;4.90;;;4.40;;
37903;SDS011;23738;50.422;18.758;2023-06-26T06:58:28;7.80;;;5.00;;
37903;SDS011;23738;50.422;18.758;2023-06-26T07:01:00;5.00;;;4.50;;
37903;SDS011;23738;50.422;18.758;2023-06-26T07:03:30;4.90;;;4.30;;
37903;SDS011;23738;50.422;18.758;2023-06-26T07:05:59;4.70;;;4.20;;
37903;SDS011;23738;50.422;18.758;2023-06-26T07:08:29;4.70;;;4.00;;
37903;SDS011;23738;50.422;18.758;2023-06-26T07:10:58;5.30;;;4.00;;
37903;SDS011;23738;50.422;18.758;2023-06-26T07:13:28;4.30;;;3.90;;
37903;SDS011;23738;50.422;18.758;2023-06-26T07:15:57;4.80;;;3.90;;
37903;SDS011;23738;50.422;18.758;2023-06-26T07:18:26;3.90;;;3.50;;
37903;SDS011;23738;50.422;18.758;2023-06-26T07:20:56;4.30;;;3.70;;
37903;SDS011;23738;50.422;18.758;2023-06-26T07:23:25;3.90;;;3.50;;
37903;SDS011;23738;50.422;18.758;2023-06-26T07:25:54;4.20;;;3.90;;
37903;SDS011;23738;50.422;18.758;2023-06-26T07:28:24;4.20;;;3.80;;
37903;SDS011;23738;50.422;18.758;2023-06-26T07:30:54;5.20;;;3.90;;
37903;SDS011;23738;50.422;18.758;2023-06-26T07:33:23;6.10;;;3.80;;
37903;SDS011;23738;50.422;18.758;2023-06-26T07:35:52;6.00;;;4.20;;
37903;SDS011;23738;50.422;18.758;2023-06-26T07:38:21;3.60;;;3.30;;
37903;SDS011;23738;50.422;18.758;2023-06-26T07:40:51;4.20;;;3.90;;
37903;SDS011;23738;50.422;18.758;2023-06-26T07:43:20;3.80;;;3.50;;
37903;SDS011;23738;50.422;18.758;2023-06-26T07:45:50;3.30;;;3.10;;
37903;SDS011;23738;50.422;18.758;2023-06-26T07:48:20;5.00;;;3.30;;
37903;SDS011;23738;50.422;18.758;2023-06-26T07:50:49;4.30;;;3.50;;
37903;SDS011;23738;50.422;18.758;2023-06-26T07:53:20;3.50;;;3.20;;
37903;SDS011;23738;50.422;18.758;2023-06-26T07:55:49;4.20;;;3.30;;
37903;SDS011;23738;50.422;18.758;2023-06-26T07:58:18;3.20;;;3.00;;
37903;SDS011;23738;50.422;18.758;2023-06-26T08:00:48;4.80;;;3.20;;
37903;SDS011;23738;50.422;18.758;2023-06-26T08:03:17;3.40;;;3.20;;
37903;SDS011;23738;50.422;18.758;2023-06-26T08:05:46;3.60;;;3.30;;
37903;SDS011;23738;50.422;18.758;2023-06-26T08:08:16;3.90;;;3.30;;
37903;SDS011;23738;50.422;18.758;2023-06-26T08:10:45;3.60;;;2.70;;
37903;SDS011;23738;50.422;18.758;2023-06-26T08:13:14;2.80;;;2.60;;
37903;SDS011;23738;50.422;18.758;2023-06-26T08:15:43;3.40;;;2.60;;
37903;SDS011;23738;50.422;18.758;2023-06-26T08:18:13;3.40;;;2.90;;
37903;SDS011;23738;50.422;18.758;2023-06-26T08:20:42;4.80;;;2.80;;
37903;SDS011;23738;50.422;18.758;2023-06-26T08:23:12;2.60;;;2.40;;
37903;SDS011;23738;50.422;18.758;2023-06-26T08:25:41;3.30;;;2.70;;
37903;SDS011;23738;50.422;18.758;2023-06-26T08:28:10;4.50;;;2.60;;
37903;SDS011;23738;50.422;18.758;2023-06-26T08:30:40;3.10;;;2.80;;
37903;SDS011;23738;50.422;18.758;2023-06-26T08:33:09;2.80;;;2.50;;
37903;SDS011;23738;50.422;18.758;2023-06-26T08:35:38;3.60;;;2.70;;
37903;SDS011;23738;50.422;18.758;2023-06-26T08:38:07;4.50;;;2.50;;
37903;SDS011;23738;50.422;18.758;2023-06-26T08:40:37;3.40;;;3.10;;
37903;SDS011;23738;50.422;18.758;2023-06-26T08:43:07;4.00;;;2.40;;
37903;SDS011;23738;50.422;18.758;2023-06-26T08:45:36;3.10;;;2.80;;
37903;SDS011;23738;50.422;18.758;2023-06-26T08:48:07;2.70;;;2.50;;
37903;SDS011;23738;50.422;18.758;2023-06-26T08:50:37;2.80;;;2.50;;
37903;SDS011;23738;50.422;18.758;2023-06-26T08:53:08;2.60;;;2.30;;
37903;SDS011;23738;50.422;18.758;2023-06-26T08:58:10;2.30;;;1.90;;
37903;SDS011;23738;50.422;18.758;2023-06-26T09:00:40;2.90;;;2.60;;
37903;SDS011;23738;50.422;18.758;2023-06-26T09:03:09;2.10;;;2.00;;
37903;SDS011;23738;50.422;18.758;2023-06-26T09:05:40;2.90;;;2.10;;
37903;SDS011;23738;50.422;18.758;2023-06-26T09:08:09;2.50;;;2.30;;
37903;SDS011;23738;50.422;18.758;2023-06-26T09:10:40;2.30;;;2.10;;
37903;SDS011;23738;50.422;18.758;2023-06-26T09:13:09;2.40;;;2.20;;
37903;SDS011;23738;50.422;18.758;2023-06-26T09:15:39;3.50;;;2.70;;
37903;SDS011;23738;50.422;18.758;2023-06-26T09:18:11;3.60;;;2.90;;
37903;SDS011;23738;50.422;18.758;2023-06-26T09:20:40;2.50;;;2.20;;
37903;SDS011;23738;50.422;18.758;2023-06-26T09:23:10;2.40;;;2.20;;
37903;SDS011;23738;50.422;18.758;2023-06-26T09:25:39;2.90;;;2.60;;
37903;SDS011;23738;50.422;18.758;2023-06-26T09:28:11;2.60;;;2.40;;
37903;SDS011;23738;50.422;18.758;2023-06-26T09:30:41;2.80;;;2.60;;
37903;SDS011;23738;50.422;18.758;2023-06-26T09:33:15;2.90;;;2.60;;
37903;SDS011;23738;50.422;18.758;2023-06-26T09:35:46;2.40;;;2.20;;
37903;SDS011;23738;50.422;18.758;2023-06-26T09:38:16;2.40;;;2.20;;
37903;SDS011;23738;50.422;18.758;2023-06-26T09:40:45;3.00;;;2.60;;
37903;SDS011;23738;50.422;18.758;2023-06-26T09:43:18;2.60;;;2.40;;
37903;SDS011;23738;50.422;18.758;2023-06-26T09:45:53;3.30;;;2.60;;
37903;SDS011;23738;50.422;18.758;2023-06-26T09:48:22;2.50;;;2.30;;
37903;SDS011;23738;50.422;18.758;2023-06-26T09:50:53;2.60;;;2.40;;
37903;SDS011;23738;50.422;18.758;2023-06-26T09:53:22;2.40;;;2.20;;
37903;SDS011;23738;50.422;18.758;2023-06-26T09:55:55;3.20;;;2.70;;
37903;SDS011;23738;50.422;18.758;2023-06-26T09:58:28;2.80;;;2.30;;
37903;SDS011;23738;50.422;18.758;2023-06-26T10:00:59;2.30;;;2.10;;
37903;SDS011;23738;50.422;18.758;2023-06-26T10:03:29;2.50;;;2.30;;
37903;SDS011;23738;50.422;18.758;2023-06-26T10:05:59;2.70;;;2.30;;
37903;SDS011;23738;50.422;18.758;2023-06-26T10:08:29;5.30;;;2.60;;
37903;SDS011;23738;50.422;18.758;2023-06-26T10:11:01;3.60;;;2.30;;
37903;SDS011;23738;50.422;18.758;2023-06-26T10:13:35;2.80;;;2.30;;
37903;SDS011;23738;50.422;18.758;2023-06-26T10:16:12;2.80;;;2.50;;
37903;SDS011;23738;50.422;18.758;2023-06-26T10:18:45;7.00;;;2.30;;
37903;SDS011;23738;50.422;18.758;2023-06-26T10:21:17;3.10;;;2.40;;
37903;SDS011;23738;50.422;18.758;2023-06-26T10:23:49;3.00;;;2.20;;
37903;SDS011;23738;50.422;18.758;2023-06-26T10:26:20;2.40;;;2.20;;
37903;SDS011;23738;50.422;18.758;2023-06-26T10:28:52;3.20;;;2.40;;
37903;SDS011;23738;50.422;18.758;2023-06-26T10:31:25;2.40;;;2.20;;
37903;SDS011;23738;50.422;18.758;2023-06-26T10:33:56;2.60;;;2.40;;
37903;SDS011;23738;50.422;18.758;2023-06-26T10:36:28;2.30;;;2.10;;
37903;SDS011;23738;50.422;18.758;2023-06-26T10:39:01;2.20;;;2.00;;
37903;SDS011;23738;50.422;18.758;2023-06-26T10:41:37;3.40;;;2.20;;
37903;SDS011;23738;50.422;18.758;2023-06-26T10:44:09;2.90;;;2.30;;
37903;SDS011;23738;50.422;18.758;2023-06-26T10:46:52;2.80;;;2.40;;
37903;SDS011;23738;50.422;18.758;2023-06-26T10:49:26;2.60;;;2.40;;
37903;SDS011;23738;50.422;18.758;2023-06-26T10:51:56;2.30;;;2.10;;
37903;SDS011;23738;50.422;18.758;2023-06-26T10:54:30;3.10;;;2.50;;
37903;SDS011;23738;50.422;18.758;2023-06-26T10:57:01;2.40;;;2.20;;
37903;SDS011;23738;50.422;18.758;2023-06-26T10:59:31;2.30;;;2.10;;
37903;SDS011;23738;50.422;18.758;2023-06-26T11:02:01;2.40;;;2.20;;
37903;SDS011;23738;50.422;18.758;2023-06-26T11:04:43;3.20;;;1.90;;
37903;SDS011;23738;50.422;18.758;2023-06-26T11:07:16;2.20;;;2.00;;
37903;SDS011;23738;50.422;18.758;2023-06-26T11:09:54;6.40;;;1.90;;
37903;SDS011;23738;50.422;18.758;2023-06-26T11:12:38;2.40;;;2.20;;
37903;SDS011;23738;50.422;18.758;2023-06-26T11:15:09;3.50;;;2.20;;
37903;SDS011;23738;50.422;18.758;2023-06-26T11:17:39;2.00;;;1.80;;
37903;SDS011;23738;50.422;18.758;2023-06-26T11:20:10;2.50;;;2.10;;
37903;SDS011;23738;50.422;18.758;2023-06-26T11:22:42;3.80;;;2.20;;
37903;SDS011;23738;50.422;18.758;2023-06-26T11:25:11;2.40;;;2.10;;
37903;SDS011;23738;50.422;18.758;2023-06-26T11:27:41;2.90;;;2.60;;
37903;SDS011;23738;50.422;18.758;2023-06-26T11:30:22;2.60;;;2.40;;
37903;SDS011;23738;50.422;18.758;2023-06-26T11:32:52;3.90;;;2.20;;
37903;SDS011;23738;50.422;18.758;2023-06-26T11:35:29;2.50;;;1.80;;
37903;SDS011;23738;50.422;18.758;2023-06-26T11:38:00;2.30;;;2.10;;
37903;SDS011;23738;50.422;18.758;2023-06-26T11:40:32;2.80;;;2.00;;
37903;SDS011;23738;50.422;18.758;2023-06-26T11:43:03;2.20;;;2.00;;
37903;SDS011;23738;50.422;18.758;2023-06-26T11:45:42;5.10;;;2.50;;
37903;SDS011;23738;50.422;18.758;2023-06-26T11:48:11;2.70;;;2.40;;
37903;SDS011;23738;50.422;18.758;2023-06-26T11:50:41;2.40;;;2.20;;
37903;SDS011;23738;50.422;18.758;2023-06-26T11:53:14;2.20;;;2.00;;
37903;SDS011;23738;50.422;18.758;2023-06-26T11:55:46;2.90;;;2.40;;
37903;SDS011;23738;50.422;18.758;2023-06-26T11:58:17;2.20;;;2.00;;
37903;SDS011;23738;50.422;18.758;2023-06-26T12:00:48;3.00;;;2.30;;
37903;SDS011;23738;50.422;18.758;2023-06-26T12:03:18;2.00;;;1.80;;
37903;SDS011;23738;50.422;18.758;2023-06-26T12:05:48;2.60;;;2.10;;
37903;SDS011;23738;50.422;18.758;2023-06-26T12:08:19;2.50;;;2.30;;
37903;SDS011;23738;50.422;18.758;2023-06-26T12:10:49;2.20;;;2.00;;
37903;SDS011;23738;50.422;18.758;2023-06-26T12:13:19;6.00;;;1.90;;
37903;SDS011;23738;50.422;18.758;2023-06-26T12:15:49;2.20;;;2.00;;
37903;SDS011;23738;50.422;18.758;2023-06-26T12:18:19;2.40;;;2.20;;
37903;SDS011;23738;50.422;18.758;2023-06-26T12:20:51;2.20;;;2.10;;
37903;SDS011;23738;50.422;18.758;2023-06-26T12:23:21;2.70;;;2.50;;
37903;SDS011;23738;50.422;18.758;2023-06-26T12:25:50;2.50;;;2.30;;
37903;SDS011;23738;50.422;18.758;2023-06-26T12:28:20;2.40;;;2.20;;
37903;SDS011;23738;50.422;18.758;2023-06-26T12:31:09;3.20;;;1.70;;
37903;SDS011;23738;50.422;18.758;2023-06-26T12:33:43;2.30;;;2.10;;
37903;SDS011;23738;50.422;18.758;2023-06-26T12:36:13;2.40;;;2.20;;
37903;SDS011;23738;50.422;18.758;2023-06-26T12:38:42;2.50;;;2.30;;
37903;SDS011;23738;50.422;18.758;2023-06-26T12:41:16;2.50;;;2.30;;
37903;SDS011;23738;50.422;18.758;2023-06-26T12:43:46;3.10;;;2.20;;
37903;SDS011;23738;50.422;18.758;2023-06-26T12:46:16;2.40;;;2.20;;
37903;SDS011;23738;50.422;18.758;2023-06-26T12:48:46;2.40;;;2.20;;
37903;SDS011;23738;50.422;18.758;2023-06-26T12:51:18;3.00;;;2.10;;
37903;SDS011;23738;50.422;18.758;2023-06-26T12:53:53;4.20;;;2.10;;
37903;SDS011;23738;50.422;18.758;2023-06-26T12:56:22;2.50;;;2.20;;
37903;SDS011;23738;50.422;18.758;2023-06-26T12:58:51;2.40;;;2.20;;
37903;SDS011;23738;50.422;18.758;2023-06-26T13:01:21;2.40;;;2.20;;
37903;SDS011;23738;50.422;18.758;2023-06-26T13:03:50;3.30;;;2.10;;
37903;SDS011;23738;50.422;18.758;2023-06-26T13:06:20;3.50;;;3.20;;
37903;SDS011;23738;50.422;18.758;2023-06-26T13:08:49;10.30;;;6.80;;
37903;SDS011;23738;50.422;18.758;2023-06-26T13:11:18;3.20;;;2.90;;
37903;SDS011;23738;50.422;18.758;2023-06-26T13:13:49;21.60;;;14.50;;
37903;SDS011;23738;50.422;18.758;2023-06-26T13:16:18;4.50;;;4.00;;
37903;SDS011;23738;50.422;18.758;2023-06-26T13:18:48;4.70;;;3.80;;
37903;SDS011;23738;50.422;18.758;2023-06-26T13:21:17;4.00;;;3.70;;
37903;SDS011;23738;50.422;18.758;2023-06-26T13:23:47;3.00;;;2.70;;
37903;SDS011;23738;50.422;18.758;2023-06-26T13:26:16;3.60;;;3.30;;
37903;SDS011;23738;50.422;18.758;2023-06-26T13:28:46;3.00;;;2.70;;
37903;SDS011;23738;50.422;18.758;2023-06-26T13:31:15;3.90;;;2.20;;
37903;SDS011;23738;50.422;18.758;2023-06-26T13:33:46;3.70;;;2.80;;
37903;SDS011;23738;50.422;18.758;2023-06-26T13:36:16;3.70;;;3.40;;
37903;SDS011;23738;50.422;18.758;2023-06-26T13:38:45;5.50;;;3.20;;
37903;SDS011;23738;50.422;18.758;2023-06-26T13:41:22;3.80;;;2.50;;
37903;SDS011;23738;50.422;18.758;2023-06-26T13:43:51;3.30;;;2.50;;
37903;SDS011;23738;50.422;18.758;2023-06-26T13:46:21;3.30;;;3.00;;
37903;SDS011;23738;50.422;18.758;2023-06-26T13:48:50;2.90;;;2.60;;
37903;SDS011;23738;50.422;18.758;2023-06-26T13:51:20;4.60;;;4.20;;
37903;SDS011;23738;50.422;18.758;2023-06-26T13:53:49;2.70;;;2.50;;
37903;SDS011;23738;50.422;18.758;2023-06-26T13:56:18;2.30;;;2.10;;
37903;SDS011;23738;50.422;18.758;2023-06-26T13:58:49;5.70;;;3.00;;
37903;SDS011;23738;50.422;18.758;2023-06-26T14:01:18;3.90;;;3.50;;
37903;SDS011;23738;50.422;18.758;2023-06-26T14:03:48;2.70;;;2.50;;
37903;SDS011;23738;50.422;18.758;2023-06-26T14:06:18;3.50;;;3.20;;
37903;SDS011;23738;50.422;18.758;2023-06-26T14:08:47;4.00;;;2.60;;
37903;SDS011;23738;50.422;18.758;2023-06-26T14:11:17;5.10;;;2.00;;
37903;SDS011;23738;50.422;18.758;2023-06-26T14:13:46;2.50;;;2.20;;
37903;SDS011;23738;50.422;18.758;2023-06-26T14:16:15;4.90;;;2.30;;
37903;SDS011;23738;50.422;18.758;2023-06-26T14:18:45;3.10;;;2.90;;
37903;SDS011;23738;50.422;18.758;2023-06-26T14:21:14;2.40;;;2.20;;
37903;SDS011;23738;50.422;18.758;2023-06-26T14:23:43;3.70;;;2.80;;
37903;SDS011;23738;50.422;18.758;2023-06-26T14:26:13;2.90;;;2.30;;
37903;SDS011;23738;50.422;18.758;2023-06-26T14:28:42;2.70;;;2.50;;
37903;SDS011;23738;50.422;18.758;2023-06-26T14:31:11;4.40;;;2.80;;
37903;SDS011;23738;50.422;18.758;2023-06-26T14:33:40;2.30;;;2.10;;
37903;SDS011;23738;50.422;18.758;2023-06-26T14:36:10;3.20;;;2.60;;
37903;SDS011;23738;50.422;18.758;2023-06-26T14:38:39;2.60;;;2.40;;
37903;SDS011;23738;50.422;18.758;2023-06-26T14:41:08;2.60;;;2.40;;
37903;SDS011;23738;50.422;18.758;2023-06-26T14:43:38;2.80;;;2.60;;
37903;SDS011;23738;50.422;18.758;2023-06-26T14:46:07;3.30;;;3.00;;
37903;SDS011;23738;50.422;18.758;2023-06-26T14:48:36;3.20;;;2.40;;
37903;SDS011;23738;50.422;18.758;2023-06-26T14:51:05;2.90;;;2.60;;
37903;SDS011;23738;50.422;18.758;2023-06-26T14:53:35;2.60;;;2.40;;
37903;SDS011;23738;50.422;18.758;2023-06-26T14:56:04;4.20;;;2.80;;
37903;SDS011;23738;50.422;18.758;2023-06-26T14:58:34;3.00;;;2.70;;
37903;SDS011;23738;50.422;18.758;2023-06-26T15:01:03;2.70;;;2.50;;
37903;SDS011;23738;50.422;18.758;2023-06-26T15:03:33;2.60;;;2.40;;
37903;SDS011;23738;50.422;18.758;2023-06-26T15:06:03;2.30;;;2.10;;
37903;SDS011;23738;50.422;18.758;2023-06-26T15:08:32;3.50;;;2.40;;
37903;SDS011;23738;50.422;18.758;2023-06-26T15:11:01;3.70;;;3.30;;
37903;SDS011;23738;50.422;18.758;2023-06-26T15:13:31;2.70;;;2.50;;
37903;SDS011;23738;50.422;18.758;2023-06-26T15:16:00;3.20;;;2.60;;
37903;SDS011;23738;50.422;18.758;2023-06-26T15:18:29;4.50;;;3.80;;
37903;SDS011;23738;50.422;18.758;2023-06-26T15:20:59;2.70;;;2.50;;